createdAt,value
2019-05-18T00:01:09.573Z,11.18
2019-05-18T00:06:14.903Z,11.06
2019-05-18T00:11:20.499Z,11.19
2019-05-18T00:16:25.736Z,11.31
2019-05-18T00:21:31.310Z,11.03
2019-05-18T00:26:36.976Z,10.94
2019-05-18T00:31:42.428Z,10.33
2019-05-18T00:36:48.203Z,10.05
2019-05-18T00:41:53.653Z,10.14
2019-05-18T00:46:58.939Z,10.50
2019-05-18T00:52:04.129Z,10.04
2019-05-18T00:57:10.136Z,10.25
2019-05-18T01:02:15.392Z,10.18
2019-05-18T01:07:20.648Z,10.20
2019-05-18T01:12:26.363Z,10.52
2019-05-18T01:17:31.554Z,10.51
2019-05-18T01:22:36.725Z,10.52
2019-05-18T01:27:42.108Z,10.55
2019-05-18T01:32:47.823Z,10.60
2019-05-18T01:37:52.994Z,9.99
2019-05-18T01:42:58.264Z,9.64
2019-05-18T01:48:13.480Z,9.36
2019-05-18T01:53:10.917Z,9.57
2019-05-18T01:58:16.386Z,9.43
2019-05-18T02:03:21.846Z,9.47
2019-05-18T02:08:26.924Z,9.42
2019-05-18T02:13:32.371Z,9.46
2019-05-18T02:18:38.123Z,9.58
2019-05-18T02:23:43.278Z,9.63
2019-05-18T02:28:48.945Z,9.59
2019-05-18T02:33:54.505Z,9.60
2019-05-18T02:38:59.969Z,9.99
2019-05-18T02:44:05.964Z,9.98
2019-05-18T02:49:11.028Z,10.01
2019-05-18T02:54:16.108Z,9.99
2019-05-18T02:59:21.240Z,9.96
2019-05-18T03:04:26.301Z,9.89
2019-05-18T03:09:31.467Z,9.79
2019-05-18T03:14:36.860Z,9.97
2019-05-18T03:19:42.465Z,9.89
2019-05-18T03:24:47.580Z,9.87
2019-05-18T03:29:52.720Z,9.99
2019-05-18T03:34:58.634Z,10.02
2019-05-18T03:40:04.069Z,9.96
2019-05-18T03:45:09.614Z,9.87
2019-05-18T03:50:15.298Z,9.97
2019-05-18T03:55:20.855Z,9.93
2019-05-18T04:00:25.921Z,9.92
2019-05-18T04:05:32.125Z,9.91
2019-05-18T04:10:37.144Z,10.03
2019-05-18T04:15:42.243Z,9.58
2019-05-18T04:20:48.156Z,8.96
2019-05-18T04:25:53.555Z,8.89
2019-05-18T04:30:58.976Z,8.83
2019-05-18T04:36:04.546Z,8.71
2019-05-18T04:41:09.855Z,8.84
2019-05-18T04:46:15.224Z,9.09
2019-05-18T04:51:20.338Z,9.17
2019-05-18T04:56:25.805Z,9.28
2019-05-18T05:01:31.230Z,9.30
2019-05-18T05:06:36.300Z,9.58
2019-05-18T05:11:41.281Z,9.82
2019-05-18T05:16:46.895Z,9.99
2019-05-18T05:21:52.836Z,10.55
2019-05-18T05:26:59.123Z,10.91
2019-05-18T05:32:04.342Z,10.89
2019-05-18T05:37:10.066Z,11.27
2019-05-18T05:42:15.729Z,11.51
2019-05-18T05:47:21.828Z,11.81
2019-05-18T05:52:27.681Z,11.92
2019-05-18T05:57:33.452Z,12.29
2019-05-18T06:02:39.111Z,13.02
2019-05-18T06:07:44.222Z,13.48
2019-05-18T06:12:49.627Z,13.81
2019-05-18T06:17:54.714Z,13.76
2019-05-18T06:23:00.753Z,13.91
2019-05-18T06:28:05.922Z,14.14
2019-05-18T06:33:11.361Z,14.19
2019-05-18T06:38:16.531Z,14.68
2019-05-18T06:43:22.354Z,14.57
2019-05-18T06:48:27.819Z,14.33
2019-05-18T06:53:32.896Z,14.98
2019-05-18T06:58:38.721Z,15.69
2019-05-18T07:03:45.116Z,15.29
2019-05-18T07:08:50.615Z,14.71
2019-05-18T07:13:55.702Z,15.57
2019-05-18T07:19:00.824Z,15.22
2019-05-18T07:24:06.688Z,14.72
2019-05-18T07:29:12.164Z,15.50
2019-05-18T07:34:17.613Z,16.32
2019-05-18T07:39:23.047Z,16.17
2019-05-18T07:44:28.442Z,16.43
2019-05-18T07:49:33.583Z,16.45
2019-05-18T07:54:38.776Z,17.18
2019-05-18T07:59:44.096Z,17.33
2019-05-18T08:04:49.177Z,17.77
2019-05-18T08:09:54.555Z,17.92
2019-05-18T08:15:00.091Z,18.37
2019-05-18T08:20:05.555Z,18.59
2019-05-18T08:25:11.157Z,18.74
2019-05-18T08:30:16.538Z,18.91
2019-05-18T08:35:21.586Z,18.56
2019-05-18T08:40:27.011Z,18.07
2019-05-18T08:45:32.102Z,17.64
2019-05-18T08:50:37.598Z,17.96
2019-05-18T08:55:42.827Z,17.65
2019-05-18T09:00:48.213Z,18.28
2019-05-18T09:05:54.114Z,18.42
2019-05-18T09:10:59.834Z,18.50
2019-05-18T09:16:05.715Z,19.13
2019-05-18T09:21:11.467Z,18.54
2019-05-18T09:26:16.466Z,19.46
2019-05-18T09:31:21.556Z,19.25
2019-05-18T09:36:26.931Z,19.64
2019-05-18T09:41:32.290Z,20.26
2019-05-18T09:46:37.434Z,20.19
2019-05-18T09:51:42.953Z,21.10
2019-05-18T09:56:47.823Z,20.07
2019-05-18T10:01:51.807Z,19.58
2019-05-18T10:06:56.036Z,19.35
2019-05-18T10:12:00.155Z,19.75
2019-05-18T10:17:04.195Z,20.36
2019-05-18T10:22:08.250Z,19.61
2019-05-18T10:27:12.667Z,20.83
2019-05-18T10:32:16.747Z,20.06
2019-05-18T10:37:21.937Z,20.86
2019-05-18T10:42:27.274Z,19.93
2019-05-18T10:47:32.614Z,19.81
2019-05-18T10:52:37.767Z,20.46
2019-05-18T10:57:43.272Z,20.17
2019-05-18T11:02:48.726Z,20.54
2019-05-18T11:07:54.054Z,21.05
2019-05-18T11:12:59.547Z,22.60
2019-05-18T11:18:05.372Z,22.37
2019-05-18T11:23:10.627Z,21.83
2019-05-18T11:28:15.782Z,22.51
2019-05-18T11:33:20.946Z,22.18
2019-05-18T11:38:26.159Z,23.57
2019-05-18T11:43:31.675Z,22.01
2019-05-18T11:48:36.931Z,23.04
2019-05-18T11:53:42.596Z,21.60
2019-05-18T11:58:47.966Z,22.44
2019-05-18T12:03:53.516Z,22.27
2019-05-18T12:08:58.800Z,21.95
2019-05-18T12:14:04.111Z,21.88
2019-05-18T12:19:09.645Z,22.19
2019-05-18T12:24:16.126Z,22.47
2019-05-18T12:29:21.473Z,22.05
2019-05-18T12:34:26.501Z,22.67
2019-05-18T12:39:32.067Z,23.69
2019-05-18T12:44:37.448Z,22.85
2019-05-18T12:49:42.493Z,22.20
2019-05-18T12:54:48.034Z,23.09
2019-05-18T12:59:53.492Z,23.72
2019-05-18T13:04:58.558Z,22.63
2019-05-18T13:10:03.908Z,24.30
2019-05-18T13:15:10.829Z,23.06
2019-05-18T13:20:17.584Z,22.70
2019-05-18T13:25:22.804Z,22.00
2019-05-18T13:30:28.506Z,22.32
2019-05-18T13:35:33.740Z,22.48
2019-05-18T13:40:39.215Z,23.30
2019-05-18T13:45:44.557Z,22.61
2019-05-18T13:50:50.470Z,22.44
2019-05-18T13:55:55.979Z,22.94
2019-05-18T14:01:01.573Z,22.46
2019-05-18T14:06:07.142Z,22.63
2019-05-18T14:11:12.750Z,22.28
2019-05-18T14:16:18.018Z,23.33
2019-05-18T14:21:23.660Z,22.34
2019-05-18T14:26:28.900Z,22.63
2019-05-18T14:31:34.384Z,23.58
2019-05-18T14:36:40.207Z,22.50
2019-05-18T14:41:45.780Z,22.54
2019-05-18T14:46:51.331Z,22.73
2019-05-18T14:51:56.474Z,22.73
2019-05-18T14:57:01.545Z,22.88
2019-05-18T15:02:06.693Z,22.50
2019-05-18T15:07:11.791Z,22.71
2019-05-18T15:12:17.207Z,22.41
2019-05-18T15:17:22.300Z,22.45
2019-05-18T15:22:27.388Z,22.35
2019-05-18T15:27:32.764Z,22.27
2019-05-18T15:32:38.327Z,21.98
2019-05-18T15:37:43.967Z,21.62
2019-05-18T15:42:49.083Z,21.63
2019-05-18T15:47:54.150Z,21.82
2019-05-18T15:52:59.838Z,21.44
2019-05-18T15:58:05.529Z,21.63
2019-05-18T16:03:10.998Z,21.81
2019-05-18T16:13:32.959Z,21.28
2019-05-18T16:18:38.482Z,20.93
2019-05-18T16:23:43.646Z,20.87
2019-05-18T16:28:49.100Z,21.05
2019-05-18T16:33:54.102Z,20.89
2019-05-18T16:38:59.287Z,20.96
2019-05-18T16:44:04.767Z,20.68
2019-05-18T16:49:10.285Z,20.78
2019-05-18T16:54:15.694Z,20.64
2019-05-18T16:59:21.504Z,20.71
2019-05-18T17:04:26.958Z,20.43
2019-05-18T17:09:32.468Z,20.27
2019-05-18T17:14:37.617Z,19.96
2019-05-18T17:19:42.679Z,20.03
2019-05-18T17:24:47.970Z,19.93
2019-05-18T17:29:53.191Z,19.80
2019-05-18T17:34:58.598Z,19.67
2019-05-18T17:40:05.066Z,19.64
2019-05-18T17:45:11.238Z,19.55
2019-05-18T17:50:16.595Z,19.40
2019-05-18T17:55:22.287Z,19.31
2019-05-18T18:00:27.748Z,19.27
2019-05-18T18:05:32.823Z,19.17
2019-05-18T18:10:37.887Z,18.93
2019-05-18T18:15:43.317Z,18.81
2019-05-18T18:20:48.885Z,18.66
2019-05-18T18:25:54.648Z,18.55
2019-05-18T18:31:00.148Z,18.21
2019-05-18T18:36:05.427Z,18.05
2019-05-18T18:41:11.232Z,17.75
2019-05-18T18:46:17.256Z,17.48
2019-05-18T18:51:22.440Z,17.44
2019-05-18T18:56:27.838Z,17.22
2019-05-18T19:01:33.175Z,17.05
2019-05-18T19:06:39.085Z,16.85
2019-05-18T19:11:44.115Z,16.74
2019-05-18T19:16:49.769Z,16.62
2019-05-18T19:21:54.855Z,16.60
2019-05-18T19:27:00.286Z,16.43
2019-05-18T19:32:05.785Z,15.98
2019-05-18T19:37:11.104Z,16.08
2019-05-18T19:42:16.515Z,15.86
2019-05-18T19:47:22.111Z,15.96
2019-05-18T19:52:27.910Z,15.77
2019-05-18T19:57:33.346Z,15.41
2019-05-18T20:02:38.585Z,15.32
2019-05-18T20:07:43.651Z,15.32
2019-05-18T20:12:48.768Z,15.23
2019-05-18T20:17:54.271Z,15.11
2019-05-18T20:23:00.154Z,14.97
2019-05-18T20:28:05.817Z,14.92
2019-05-18T20:33:11.268Z,14.85
2019-05-18T20:38:16.432Z,14.84
2019-05-18T20:43:21.924Z,14.75
2019-05-18T20:48:26.966Z,14.52
2019-05-18T20:53:32.295Z,14.51
2019-05-18T20:58:40.540Z,14.53
2019-05-18T21:03:44.749Z,14.32
2019-05-18T21:08:49.974Z,14.34
2019-05-18T21:13:57.626Z,14.28
2019-05-18T21:19:01.888Z,14.08
2019-05-18T21:24:07.205Z,14.06
2019-05-18T21:29:12.280Z,14.00
2019-05-18T21:34:19.041Z,13.86
2019-05-18T21:39:24.604Z,13.61
2019-05-18T21:44:30.483Z,13.64
2019-05-18T21:49:35.840Z,13.60
2019-05-18T21:54:41.232Z,13.52
2019-05-18T21:59:46.535Z,13.54
2019-05-18T22:04:52.066Z,13.72
2019-05-18T22:09:58.426Z,13.62
2019-05-18T22:15:03.884Z,13.46
2019-05-18T22:20:09.855Z,13.35
2019-05-18T22:25:15.294Z,13.31
2019-05-18T22:30:21.065Z,13.35
2019-05-18T22:35:26.525Z,13.04
2019-05-18T22:40:31.737Z,13.14
2019-05-18T22:45:37.034Z,13.22
2019-05-18T22:50:42.397Z,13.07
2019-05-18T22:55:47.839Z,13.33
2019-05-18T23:00:53.587Z,13.38
2019-05-18T23:05:59.546Z,13.39
2019-05-18T23:11:04.830Z,13.30
2019-05-18T23:16:09.945Z,13.24
2019-05-18T23:21:15.273Z,13.39
2019-05-18T23:26:20.621Z,13.38
2019-05-18T23:31:26.297Z,13.37
2019-05-18T23:36:31.452Z,13.37
2019-05-18T23:41:37.195Z,13.24
2019-05-18T23:46:42.915Z,13.36
2019-05-18T23:51:48.638Z,13.48
2019-05-18T23:56:53.799Z,13.38
